Fried, North Dakota
Current Conditions -  °F | °C
As of 10:05 PM on Thursday 27 Nov 2014 (Local Time) from KJMS Reporting Station
Light Snow Light Snow  
Wind Chill: -11°   Ceiling: 3400
Heat Index:   Visibility: 5mi
Dew Point:   Wind: 14mph
Humidity: 80%   Direction: 120°ESE
Pressure: 30"   Gusts: NA
Location:  46.8494°N, 98.7424°W
Report Text: KJMS 280405Z AUTO 12012KT 5SM -SN OVC034 M14/M17 A3000 RMK AO2 P0000 T11441172
Loading
Personal Weather Stations






























Interactive Weather Map New forecast layout! Learn more

10-Day Weather Forecast

Advertisements
Track Severe Weather on mobile